createdAt,value
2023-10-23T00:04:28.595Z,66.66
2023-10-23T00:09:30.705Z,67.08
2023-10-23T00:14:32.624Z,66.92
2023-10-23T00:19:34.485Z,67.30
2023-10-23T00:24:36.495Z,67.03
2023-10-23T00:29:38.456Z,66.81
2023-10-23T00:34:40.337Z,67.16
2023-10-23T00:39:42.260Z,66.74
2023-10-23T00:44:44.204Z,66.73
2023-10-23T00:49:46.125Z,66.79
2023-10-23T00:54:48.234Z,67.21
2023-10-23T00:59:50.678Z,66.95
2023-10-23T01:04:53.643Z,66.91
2023-10-23T01:09:55.746Z,66.96
2023-10-23T01:14:57.835Z,66.74
2023-10-23T01:19:59.795Z,66.74
2023-10-23T01:25:03.015Z,66.62
2023-10-23T01:30:05.545Z,66.69
2023-10-23T01:35:07.617Z,67.08
2023-10-23T01:40:10.348Z,66.91
2023-10-23T01:45:12.505Z,67.21
2023-10-23T01:50:14.521Z,66.91
2023-10-23T01:55:16.524Z,66.89
2023-10-23T02:00:18.955Z,66.62
2023-10-23T02:05:20.896Z,66.81
2023-10-23T02:10:22.790Z,67.25
2023-10-23T02:15:24.780Z,66.92
2023-10-23T02:20:28.759Z,66.67
2023-10-23T02:25:30.703Z,66.36
2023-10-23T02:30:32.655Z,66.75
2023-10-23T02:35:36.341Z,66.80
2023-10-23T02:40:38.630Z,67.08
2023-10-23T02:45:40.604Z,66.95
2023-10-23T02:50:42.530Z,66.85
2023-10-23T02:55:44.460Z,66.75
2023-10-23T03:00:47.336Z,66.57
2023-10-23T03:05:49.261Z,66.43
2023-10-23T03:10:51.147Z,66.44
2023-10-23T03:15:53.921Z,66.33
2023-10-23T03:21:03.277Z,66.29
2023-10-23T03:26:05.543Z,66.53
2023-10-23T03:31:07.510Z,67.07
2023-10-23T03:36:09.467Z,66.61
2023-10-23T03:41:11.399Z,67.02
2023-10-23T03:46:13.447Z,66.81
2023-10-23T03:51:15.406Z,66.67
2023-10-23T03:56:17.318Z,66.80
2023-10-23T04:01:19.389Z,66.59
2023-10-23T04:06:21.439Z,67.02
2023-10-23T04:11:23.744Z,67.02
2023-10-23T04:16:25.682Z,66.81
2023-10-23T04:21:27.626Z,67.28
2023-10-23T04:26:29.618Z,66.94
2023-10-23T04:31:31.712Z,66.72
2023-10-23T04:36:33.650Z,66.72
2023-10-23T04:41:35.561Z,66.94
2023-10-23T04:46:37.499Z,66.93
2023-10-23T04:51:39.421Z,66.70
2023-10-23T04:56:42.638Z,66.74
2023-10-23T05:01:44.663Z,66.77
2023-10-23T05:06:46.714Z,66.74
2023-10-23T05:11:48.620Z,66.99
2023-10-23T05:16:50.562Z,67.23
2023-10-23T05:21:52.843Z,67.16
2023-10-23T05:26:54.820Z,66.93
2023-10-23T05:31:56.727Z,66.87
2023-10-23T05:36:58.676Z,66.95
2023-10-23T05:42:00.589Z,66.89
2023-10-23T05:47:02.579Z,67.05
2023-10-23T05:52:04.975Z,66.52
2023-10-23T05:57:06.900Z,67.02
2023-10-23T06:02:08.761Z,67.29
2023-10-23T06:07:11.008Z,67.21
2023-10-23T06:12:13.887Z,67.24
2023-10-23T06:17:15.811Z,67.19
2023-10-23T06:22:17.751Z,67.07
2023-10-23T06:27:19.647Z,66.95
2023-10-23T06:32:21.654Z,67.29
2023-10-23T06:37:23.614Z,67.28
2023-10-23T06:42:28.713Z,67.30
2023-10-23T06:47:30.888Z,66.86
2023-10-23T06:52:33.585Z,66.83
2023-10-23T06:57:35.461Z,66.43
2023-10-23T07:02:37.470Z,66.36
2023-10-23T07:07:39.383Z,66.87
2023-10-23T07:12:41.435Z,66.15
2023-10-23T07:17:43.455Z,66.18
2023-10-23T07:26:48.030Z,66.59
2023-10-23T07:31:49.955Z,66.26
2023-10-23T07:36:51.886Z,66.30
2023-10-23T07:41:53.822Z,66.04
2023-10-23T07:46:55.770Z,66.18
2023-10-23T07:51:58.885Z,65.77
2023-10-23T07:57:00.829Z,65.22
2023-10-23T08:02:02.923Z,65.06
2023-10-23T08:07:05.137Z,64.59
2023-10-23T08:12:07.522Z,64.48
2023-10-23T08:17:09.520Z,64.73
2023-10-23T08:22:11.618Z,64.73
2023-10-23T08:27:13.736Z,64.47
2023-10-23T08:32:17.288Z,64.96
2023-10-23T08:37:19.403Z,65.14
2023-10-23T08:42:22.557Z,64.82
2023-10-23T08:47:25.245Z,64.82
2023-10-23T08:52:33.381Z,64.46
2023-10-23T08:57:37.458Z,64.08
2023-10-23T09:02:52.160Z,63.79
2023-10-23T09:07:54.750Z,63.34
2023-10-23T09:12:58.155Z,63.61
2023-10-23T09:18:00.231Z,64.09
2023-10-23T09:23:02.186Z,64.08
2023-10-23T09:28:12.052Z,63.97
2023-10-23T09:33:15.842Z,64.38
2023-10-23T09:38:17.864Z,63.66
2023-10-23T09:43:20.504Z,63.86
2023-10-23T09:48:24.279Z,63.49
2023-10-23T09:53:26.420Z,63.89
2023-10-23T09:58:33.601Z,63.84
2023-10-23T10:03:41.470Z,62.99
2023-10-23T10:08:51.153Z,63.13
2023-10-23T10:13:54.061Z,63.02
2023-10-23T10:18:55.982Z,62.70
2023-10-23T10:24:00.238Z,63.16
2023-10-23T10:29:02.213Z,63.20
2023-10-23T10:34:26.748Z,63.43
2023-10-23T10:39:54.740Z,64.31
2023-10-23T10:45:00.552Z,63.55
2023-10-23T10:50:02.653Z,63.96
2023-10-23T10:55:10.088Z,64.02
2023-10-23T11:00:13.377Z,63.52
2023-10-23T11:05:15.894Z,63.50
2023-10-23T11:10:18.074Z,63.20
2023-10-23T11:15:20.209Z,63.02
2023-10-23T11:20:22.176Z,63.02
2023-10-23T11:25:24.270Z,62.65
2023-10-23T11:30:28.802Z,62.50
2023-10-23T11:35:34.590Z,61.77
2023-10-23T11:40:38.141Z,61.97
2023-10-23T11:45:41.418Z,62.09
2023-10-23T11:50:43.742Z,61.52
2023-10-23T11:55:46.822Z,61.40
2023-10-23T12:00:48.744Z,60.86
2023-10-23T12:05:50.631Z,60.57
2023-10-23T12:10:52.594Z,59.95
2023-10-23T12:15:54.562Z,60.27
2023-10-23T12:20:59.351Z,60.57
2023-10-23T12:26:01.582Z,60.64
2023-10-23T12:31:22.710Z,60.06
2023-10-23T12:36:26.286Z,60.18
2023-10-23T12:41:28.163Z,60.36
2023-10-23T12:46:30.461Z,60.00
2023-10-23T12:51:32.545Z,60.44
2023-10-23T12:56:34.585Z,60.40
2023-10-23T13:01:36.556Z,60.24
2023-10-23T13:06:38.502Z,60.42
2023-10-23T13:11:40.369Z,60.21
2023-10-23T13:16:42.457Z,60.52
2023-10-23T13:21:44.836Z,60.21
2023-10-23T13:26:46.952Z,60.79
2023-10-23T13:31:53.185Z,60.19
2023-10-23T13:36:55.213Z,59.42
2023-10-23T13:41:57.303Z,58.22
2023-10-23T13:46:59.342Z,57.96
2023-10-23T13:52:01.366Z,57.79
2023-10-23T13:57:04.041Z,57.43
2023-10-23T14:02:06.624Z,58.17
2023-10-23T14:07:08.705Z,57.96
2023-10-23T14:12:11.218Z,57.99
2023-10-23T14:17:13.145Z,57.87
2023-10-23T14:22:15.843Z,57.66
2023-10-23T14:27:18.128Z,57.70
2023-10-23T14:32:20.071Z,57.76
2023-10-23T14:37:22.489Z,57.49
2023-10-23T14:42:24.682Z,57.99
2023-10-23T14:47:26.610Z,58.14
2023-10-23T14:52:28.589Z,58.30
2023-10-23T14:57:30.463Z,58.29
2023-10-23T15:02:32.812Z,58.09
2023-10-23T15:07:34.749Z,58.49
2023-10-23T15:12:36.964Z,58.54
2023-10-23T15:17:39.008Z,59.04
2023-10-23T15:22:40.956Z,59.87
2023-10-23T15:27:42.861Z,60.48
2023-10-23T15:32:44.953Z,61.25
2023-10-23T15:37:46.999Z,61.35
2023-10-23T15:42:54.808Z,61.78
2023-10-23T15:48:03.063Z,62.55
2023-10-23T15:53:06.442Z,63.32
2023-10-23T15:58:08.973Z,63.39
2023-10-23T16:03:13.745Z,63.86
2023-10-23T16:08:18.919Z,64.02
2023-10-23T16:13:24.125Z,64.04
2023-10-23T16:18:37.322Z,64.38
2023-10-23T16:23:43.205Z,64.68
2023-10-23T16:28:46.842Z,64.84
2023-10-23T16:33:51.645Z,65.36
2023-10-23T16:38:55.286Z,65.58
2023-10-23T16:43:57.273Z,65.36
2023-10-23T16:48:59.245Z,65.93
2023-10-23T16:54:01.196Z,65.66
2023-10-23T16:59:05.740Z,65.63
2023-10-23T17:04:07.790Z,65.85
2023-10-23T17:09:10.974Z,65.77
2023-10-23T17:14:12.890Z,65.94
2023-10-23T17:19:15.346Z,65.99
2023-10-23T17:24:17.478Z,66.28
2023-10-23T17:29:19.663Z,66.67
2023-10-23T17:34:21.999Z,66.95
2023-10-23T17:39:24.254Z,66.80
2023-10-23T17:44:26.219Z,66.77
2023-10-23T17:49:28.142Z,66.84
2023-10-23T17:54:30.039Z,67.07
2023-10-23T17:59:34.203Z,67.15
2023-10-23T18:04:36.100Z,66.90
2023-10-23T18:09:38.161Z,67.13
2023-10-23T18:14:40.323Z,67.05
2023-10-23T18:19:43.833Z,66.63
2023-10-23T18:24:47.505Z,67.15
2023-10-23T18:29:49.386Z,67.21
2023-10-23T18:34:52.413Z,68.37
2023-10-23T18:39:54.382Z,70.33
2023-10-23T18:44:56.881Z,70.03
2023-10-23T18:50:01.566Z,70.51
2023-10-23T18:55:03.998Z,70.71
2023-10-23T19:00:07.895Z,70.59
2023-10-23T19:05:10.297Z,70.56
2023-10-23T19:10:13.245Z,70.91
2023-10-23T19:15:15.270Z,70.81
2023-10-23T19:20:17.267Z,70.71
2023-10-23T19:25:19.233Z,70.60
2023-10-23T19:30:22.614Z,70.21
2023-10-23T19:35:25.458Z,70.36
2023-10-23T19:40:28.149Z,70.51
2023-10-23T19:45:30.389Z,70.46
2023-10-23T19:50:33.032Z,70.72
2023-10-23T19:55:43.259Z,70.54
2023-10-23T20:00:48.692Z,70.39
2023-10-23T20:05:54.050Z,70.65
2023-10-23T20:10:56.036Z,70.60
2023-10-23T20:16:04.872Z,70.76
2023-10-23T20:21:07.193Z,70.54
2023-10-23T20:26:16.702Z,70.55
2023-10-23T20:31:19.955Z,70.12
2023-10-23T20:36:22.718Z,70.21
2023-10-23T20:41:24.920Z,69.81
2023-10-23T20:46:26.948Z,69.73
2023-10-23T20:51:28.996Z,69.50
2023-10-23T20:56:31.311Z,69.44
2023-10-23T21:01:33.361Z,69.49
2023-10-23T21:06:35.806Z,69.57
2023-10-23T21:11:37.916Z,69.33
2023-10-23T21:16:40.152Z,69.51
2023-10-23T21:21:46.533Z,69.34
2023-10-23T21:26:49.190Z,69.25
2023-10-23T21:31:53.587Z,69.34
2023-10-23T21:36:55.914Z,69.44
2023-10-23T21:41:57.878Z,69.41
2023-10-23T21:46:59.887Z,68.87
2023-10-23T21:52:02.202Z,69.23
2023-10-23T21:57:20.616Z,69.19
2023-10-23T22:02:25.379Z,68.75
2023-10-23T22:07:27.568Z,68.58
2023-10-23T22:12:29.732Z,68.60
2023-10-23T22:17:31.727Z,68.87
2023-10-23T22:22:33.768Z,68.99
2023-10-23T22:27:35.745Z,68.85
2023-10-23T22:32:37.738Z,68.64
2023-10-23T22:38:01.563Z,68.66
2023-10-23T22:43:01.556Z,68.63
2023-10-23T22:48:03.652Z,68.91
2023-10-23T22:53:06.018Z,68.84
2023-10-23T22:58:11.459Z,68.93
2023-10-23T23:03:13.715Z,68.60
2023-10-23T23:08:18.057Z,68.49
2023-10-23T23:13:20.314Z,68.47
2023-10-23T23:18:23.649Z,68.34
2023-10-23T23:23:25.561Z,68.56
2023-10-23T23:28:27.543Z,68.60
2023-10-23T23:33:30.311Z,68.66
2023-10-23T23:38:32.212Z,68.53
2023-10-23T23:43:34.530Z,68.67
2023-10-23T23:48:36.511Z,68.65
2023-10-23T23:53:38.415Z,68.42
2023-10-23T23:58:40.411Z,68.65
